Time;durP1;ratioP1;P1;durP2;ratioP2;P2;SDS_P1;SDS_P2;PMS_P1;PMS_P2;Temp;Humidity;BMP_temperature;BMP_pressure;BME280_temperature;BME280_humidity;BME280_pressure;Samples;Min_cycle;Max_cycle;Signal;HPM_P1;HPM_P2
2022/06/01 00:02:08;;;;;;;4.50;2.10;;;15.80;88.20;;;;;;5010940;28;20025;-73
2022/06/01 00:04:34;;;;;;;3.80;1.90;;;15.80;88.20;;;;;;5003673;28;20041;-74
2022/06/01 00:07:00;;;;;;;4.40;2.13;;;15.80;88.20;;;;;;5012455;28;20022;-74
2022/06/01 00:09:25;;;;;;;3.53;2.08;;;15.80;88.30;;;;;;5009113;28;20384;-75
2022/06/01 00:11:51;;;;;;;3.30;1.90;;;15.80;88.40;;;;;;4997355;28;20442;-75
2022/06/01 00:14:17;;;;;;;3.85;2.00;;;15.80;88.40;;;;;;4999003;28;20038;-74
2022/06/01 00:16:43;;;;;;;4.22;2.20;;;15.80;88.40;;;;;;4997988;28;20076;-74
2022/06/01 00:19:09;;;;;;;3.67;2.05;;;15.80;88.20;;;;;;5013398;28;20045;-74
2022/06/01 00:22:11;;;;;;;4.70;2.00;;;15.90;88.00;;;;;;4997284;28;20037;-75
2022/06/01 00:24:20;;;;;;;5.75;2.30;;;15.90;87.80;;;;;;5013152;28;20105;-74
2022/06/01 00:26:48;;;;;;;3.45;2.10;;;15.90;87.60;;;;;;5008907;28;20110;-74
2022/06/01 00:29:14;;;;;;;4.55;2.13;;;15.90;87.60;;;;;;5008036;28;20066;-74
2022/06/01 00:31:39;;;;;;;3.50;2.00;;;15.90;87.50;;;;;;5010512;28;20056;-75
2022/06/01 00:34:05;;;;;;;4.00;2.15;;;15.90;87.70;;;;;;5002169;28;20446;-75
2022/06/01 00:36:31;;;;;;;4.03;2.25;;;15.90;88.40;;;;;;5011667;28;20129;-75
2022/06/01 00:38:57;;;;;;;4.35;2.10;;;15.90;88.30;;;;;;4993862;28;20036;-75
2022/06/01 00:41:22;;;;;;;3.92;2.05;;;15.90;88.10;;;;;;4993468;28;20026;-75
2022/06/01 00:43:49;;;;;;;3.30;2.00;;;15.90;88.80;;;;;;4997244;28;20406;-74
2022/06/01 00:46:14;;;;;;;4.40;2.30;;;15.80;88.20;;;;;;5011715;28;20083;-75
2022/06/01 00:48:44;;;;;;;4.03;2.15;;;15.80;88.20;;;;;;5000101;28;20479;-75
2022/06/01 00:51:12;;;;;;;2.75;1.90;;;15.80;88.40;;;;;;5009031;28;20025;-75
2022/06/01 00:53:40;;;;;;;3.90;2.30;;;15.80;88.40;;;;;;4997447;28;20018;-74
2022/06/01 00:56:11;;;;;;;4.32;2.42;;;15.80;88.40;;;;;;5012878;28;20092;-74
2022/06/01 00:58:43;;;;;;;4.70;2.10;;;15.80;88.50;;;;;;5009225;28;20637;-74
2022/06/01 01:01:13;;;;;;;;;;;15.80;88.40;;;;;;5012941;28;20289;-74
2022/06/01 01:03:42;;;;;;;3.85;2.28;;;15.80;88.50;;;;;;5012843;28;19905;-74
2022/06/01 01:06:27;;;;;;;4.50;2.28;;;15.80;88.40;;;;;;5004545;28;20100;-74
2022/06/01 01:08:53;;;;;;;3.42;1.90;;;15.80;88.50;;;;;;4992837;28;20018;-74
2022/06/01 01:11:25;;;;;;;3.78;2.20;;;15.80;88.50;;;;;;5008047;28;20161;-74
2022/06/01 01:13:53;;;;;;;3.75;2.10;;;15.80;88.60;;;;;;5006995;28;20026;-75
2022/06/01 01:16:20;;;;;;;5.38;2.28;;;15.80;88.70;;;;;;4993131;28;20018;-74
2022/06/01 01:18:47;;;;;;;3.70;2.20;;;15.80;89.10;;;;;;4992643;28;20101;-75
2022/06/01 01:21:37;;;;;;;4.15;2.17;;;15.80;88.70;;;;;;5007939;28;20030;-74
2022/06/01 01:24:15;;;;;;;4.35;2.63;;;15.80;88.60;;;;;;4999666;28;20033;-74
2022/06/01 01:26:47;;;;;;;3.40;2.03;;;15.80;88.60;;;;;;5007363;28;20030;-75
2022/06/01 01:29:13;;;;;;;3.28;2.15;;;15.80;88.50;;;;;;5006651;28;20084;-75
2022/06/01 01:31:40;;;;;;;4.05;2.17;;;15.80;88.20;;;;;;5011076;28;20113;-74
2022/06/01 01:34:06;;;;;;;4.05;2.40;;;15.90;88.10;;;;;;5011850;28;20133;-74
2022/06/01 01:36:38;;;;;;;4.22;2.35;;;15.90;87.70;;;;;;5011728;28;20020;-75
2022/06/01 01:39:07;;;;;;;3.53;2.20;;;15.90;87.70;;;;;;5010422;28;20554;-74
2022/06/01 01:41:43;;;;;;;3.70;2.13;;;15.90;87.50;;;;;;4992538;28;20018;-74
2022/06/01 01:44:13;;;;;;;4.30;2.33;;;15.90;87.50;;;;;;5020913;28;20491;-74
2022/06/01 01:46:39;;;;;;;3.65;2.17;;;15.90;87.30;;;;;;5010406;28;20037;-74
2022/06/01 01:49:05;;;;;;;4.97;2.40;;;15.90;88.20;;;;;;5012032;28;20037;-74
2022/06/01 01:51:33;;;;;;;4.68;2.40;;;15.90;88.50;;;;;;4996035;28;20026;-74
2022/06/01 01:54:02;;;;;;;3.83;2.38;;;15.80;88.20;;;;;;5006271;28;20026;-74
2022/06/01 01:56:41;;;;;;;4.57;2.22;;;15.80;88.40;;;;;;5011401;28;20076;-74
2022/06/01 01:59:15;;;;;;;4.03;2.30;;;15.80;88.00;;;;;;5001030;28;20038;-74
2022/06/01 02:01:59;;;;;;;4.50;2.40;;;15.80;88.20;;;;;;5005410;28;20036;-74
2022/06/01 02:07:45;;;;;;;3.67;2.35;;;15.80;88.50;;;;;;5011301;28;20737;-74
2022/06/01 02:12:56;;;;;;;3.10;2.00;;;15.70;88.50;;;;;;5004069;28;20072;-74
2022/06/01 02:15:31;;;;;;;4.43;2.58;;;15.80;88.50;;;;;;5009102;28;20053;-74
2022/06/01 02:18:05;;;;;;;4.32;2.20;;;15.70;88.60;;;;;;5011438;28;20650;-74
2022/06/01 02:20:42;;;;;;;3.05;2.10;;;15.70;88.60;;;;;;5008389;28;20025;-74
2022/06/01 02:23:11;;;;;;;3.22;2.00;;;15.70;88.60;;;;;;5011698;28;20026;-75
2022/06/01 02:25:39;;;;;;;3.75;2.25;;;15.70;88.70;;;;;;5011613;28;20550;-74
2022/06/01 02:28:06;;;;;;;4.55;2.28;;;15.70;88.70;;;;;;5011223;28;20045;-75
2022/06/01 02:30:36;;;;;;;3.95;2.45;;;15.70;88.70;;;;;;4993067;28;20034;-74
2022/06/01 02:33:05;;;;;;;3.65;2.13;;;15.70;88.70;;;;;;5025510;28;20570;-74
2022/06/01 02:35:36;;;;;;;6.03;2.55;;;15.80;88.80;;;;;;4994010;28;20026;-74
2022/06/01 02:38:10;;;;;;;3.88;2.50;;;15.70;88.70;;;;;;4992070;28;20050;-74
2022/06/01 02:40:35;;;;;;;4.45;2.47;;;15.80;88.70;;;;;;4991990;28;20034;-74
2022/06/01 02:43:01;;;;;;;3.55;2.13;;;15.80;88.60;;;;;;5006788;28;20165;-74
2022/06/01 02:45:27;;;;;;;3.90;2.30;;;15.80;88.50;;;;;;4992084;28;20502;-74
2022/06/01 02:47:55;;;;;;;4.35;2.45;;;15.80;88.30;;;;;;4991468;28;20030;-74
2022/06/01 02:50:26;;;;;;;3.63;2.25;;;15.90;88.20;;;;;;5001497;28;20037;-74
2022/06/01 02:52:52;;;;;;;2.95;2.00;;;15.90;88.10;;;;;;5006883;28;20084;-75
2022/06/01 02:55:21;;;;;;;3.88;2.40;;;15.90;88.10;;;;;;4990658;28;20503;-74
2022/06/01 02:57:47;;;;;;;3.88;2.25;;;15.90;88.50;;;;;;4992328;28;20168;-75
2022/06/01 03:00:35;;;;;;;3.50;2.10;;;15.80;88.60;;;;;;5010140;28;20022;-75
2022/06/01 03:03:03;;;;;;;4.32;2.25;;;15.80;88.50;;;;;;5009986;28;20025;-75
2022/06/01 03:05:35;;;;;;;3.92;2.30;;;15.80;88.60;;;;;;5009170;28;20033;-74
2022/06/01 03:08:01;;;;;;;3.25;2.15;;;15.80;88.60;;;;;;5010062;28;20023;-75
2022/06/01 03:10:27;;;;;;;3.28;1.95;;;15.80;88.60;;;;;;5022157;28;20034;-75
2022/06/01 03:12:53;;;;;;;3.15;1.90;;;15.80;88.70;;;;;;5013478;28;20101;-75
2022/06/01 03:15:21;;;;;;;3.42;1.90;;;15.80;88.70;;;;;;5014589;28;20034;-74
2022/06/01 03:17:47;;;;;;;3.63;2.10;;;15.70;88.70;;;;;;5014578;28;20063;-75
2022/06/01 03:20:17;;;;;;;3.75;2.25;;;15.70;88.70;;;;;;5009860;28;20447;-74
2022/06/01 03:22:43;;;;;;;4.18;2.33;;;15.70;88.70;;;;;;4995539;28;20553;-74
2022/06/01 03:25:13;;;;;;;4.53;2.38;;;15.70;88.70;;;;;;5014824;28;20034;-74
2022/06/01 03:27:38;;;;;;;3.53;2.30;;;15.70;88.80;;;;;;5014135;28;20049;-75
2022/06/01 03:30:06;;;;;;;3.75;2.35;;;15.70;88.80;;;;;;5012735;28;20030;-74
2022/06/01 03:32:32;;;;;;;3.92;2.38;;;15.70;88.80;;;;;;5009836;28;20026;-74
2022/06/01 03:34:57;;;;;;;3.78;2.30;;;15.70;88.80;;;;;;5002195;28;20429;-73
2022/06/01 03:37:23;;;;;;;4.30;2.53;;;15.70;88.80;;;;;;5012436;28;20034;-74
2022/06/01 03:39:49;;;;;;;3.78;2.38;;;15.70;88.80;;;;;;5010850;28;20029;-75
2022/06/01 03:42:14;;;;;;;4.00;2.63;;;15.70;88.80;;;;;;4996285;28;20509;-75
2022/06/01 03:47:28;;;;;;;4.00;2.38;;;15.70;88.90;;;;;;4985626;28;20030;-74
2022/06/01 03:49:54;;;;;;;4.65;2.63;;;15.70;88.70;;;;;;5012091;28;20030;-74
2022/06/01 03:52:19;;;;;;;4.03;2.40;;;15.70;88.70;;;;;;5013100;28;20030;-76
2022/06/01 03:54:45;;;;;;;3.50;2.13;;;15.80;88.60;;;;;;5013990;28;20034;-74
2022/06/01 03:57:12;;;;;;;3.95;2.28;;;15.80;88.40;;;;;;5013817;28;20036;-74
2022/06/01 03:59:38;;;;;;;4.15;2.30;;;15.80;88.30;;;;;;5013853;28;20042;-75
2022/06/01 04:02:05;;;;;;;3.00;2.10;;;15.80;88.20;;;;;;5014050;28;20066;-74
2022/06/01 04:04:31;;;;;;;4.10;2.42;;;15.80;88.10;;;;;;5013761;28;20080;-74
2022/06/01 04:06:56;;;;;;;3.53;2.25;;;15.80;88.20;;;;;;5008639;28;20026;-74
2022/06/01 04:09:22;;;;;;;4.95;2.45;;;15.80;88.60;;;;;;4994090;28;20030;-75
2022/06/01 04:11:51;;;;;;;4.00;2.20;;;15.80;88.60;;;;;;5011142;28;20076;-73
2022/06/01 04:14:18;;;;;;;3.78;2.42;;;15.80;88.50;;;;;;5013390;28;20105;-74
2022/06/01 04:16:43;;;;;;;3.85;2.35;;;15.80;88.50;;;;;;5011372;28;20577;-74
2022/06/01 04:19:09;;;;;;;4.20;2.42;;;15.80;88.50;;;;;;5004973;28;20053;-75
2022/06/01 04:21:37;;;;;;;3.97;2.33;;;15.80;88.60;;;;;;4995259;28;20038;-75
2022/06/01 04:24:05;;;;;;;3.80;2.20;;;15.70;88.50;;;;;;4997110;28;20487;-75
2022/06/01 04:26:32;;;;;;;4.28;2.65;;;15.70;88.60;;;;;;5003356;28;20076;-75
2022/06/01 04:28:57;;;;;;;4.03;2.40;;;15.70;88.60;;;;;;4997933;28;20106;-75
2022/06/01 04:31:23;;;;;;;5.13;2.90;;;15.70;88.60;;;;;;5007173;28;20118;-75
2022/06/01 04:33:48;;;;;;;4.82;2.67;;;15.70;88.60;;;;;;4997961;28;20092;-74
2022/06/01 04:36:14;;;;;;;4.38;2.40;;;15.70;88.60;;;;;;5011833;28;20026;-74
2022/06/01 04:38:39;;;;;;;4.47;2.53;;;15.70;88.70;;;;;;5006650;28;20034;-73
2022/06/01 04:41:05;;;;;;;3.75;2.10;;;15.70;88.70;;;;;;4996545;28;20092;-75
2022/06/01 04:43:30;;;;;;;4.75;2.60;;;15.70;88.60;;;;;;4995365;28;20030;-74
2022/06/01 04:45:56;;;;;;;3.83;2.40;;;15.70;88.60;;;;;;4995019;28;20105;-74
2022/06/01 04:48:23;;;;;;;4.20;2.58;;;15.70;88.60;;;;;;4998785;28;20026;-75
2022/06/01 04:50:51;;;;;;;4.50;2.53;;;15.70;88.50;;;;;;4996533;28;20088;-75
2022/06/01 04:53:17;;;;;;;4.85;2.65;;;15.70;88.50;;;;;;4986007;28;20121;-74
2022/06/01 04:55:45;;;;;;;4.05;2.50;;;15.70;88.50;;;;;;4987427;28;20080;-76
2022/06/01 04:58:11;;;;;;;4.07;2.58;;;15.80;88.60;;;;;;4989425;28;20026;-74
2022/06/01 05:00:38;;;;;;;4.53;2.72;;;15.80;88.50;;;;;;5001349;28;20120;-73
2022/06/01 05:03:04;;;;;;;4.38;2.50;;;15.80;88.40;;;;;;5007264;28;20030;-74
2022/06/01 05:05:30;;;;;;;3.55;2.40;;;15.80;88.30;;;;;;5004711;28;20036;-76
2022/06/01 05:07:56;;;;;;;4.13;2.47;;;15.80;88.00;;;;;;5006851;28;20114;-74
2022/06/01 05:10:22;;;;;;;3.72;2.35;;;15.90;88.00;;;;;;4996313;28;20476;-74
2022/06/01 05:12:51;;;;;;;4.32;2.53;;;15.90;88.00;;;;;;4996405;28;20033;-74
2022/06/01 05:15:16;;;;;;;4.25;2.70;;;15.90;87.90;;;;;;4997258;28;20030;-73
2022/06/01 05:17:42;;;;;;;4.65;2.70;;;15.90;87.70;;;;;;5010740;28;20030;-76
2022/06/01 05:20:09;;;;;;;4.85;2.60;;;15.90;87.80;;;;;;4995181;28;20035;-74
2022/06/01 05:22:35;;;;;;;5.05;2.92;;;15.90;88.00;;;;;;4995714;28;20516;-75
2022/06/01 05:25:01;;;;;;;4.72;2.85;;;15.80;88.10;;;;;;4999087;28;20028;-73
2022/06/01 05:27:26;;;;;;;4.68;2.85;;;15.80;88.50;;;;;;5001914;28;20109;-75
2022/06/01 05:29:52;;;;;;;4.35;2.85;;;15.80;88.00;;;;;;4997873;28;20033;-75
2022/06/01 05:32:18;;;;;;;4.72;2.97;;;15.80;88.20;;;;;;4999036;28;20069;-75
2022/06/01 05:34:44;;;;;;;4.63;2.90;;;15.80;88.30;;;;;;4999262;28;20105;-75
2022/06/01 05:37:09;;;;;;;6.10;3.40;;;15.80;88.20;;;;;;4994123;28;20109;-74
2022/06/01 05:39:35;;;;;;;4.60;2.60;;;15.80;88.20;;;;;;4995046;28;20072;-74
2022/06/01 05:42:00;;;;;;;5.05;2.70;;;15.80;88.20;;;;;;4999933;28;20022;-75
2022/06/01 05:44:26;;;;;;;4.57;2.75;;;15.80;88.20;;;;;;4994180;28;20022;-73
2022/06/01 05:46:59;;;;;;;4.90;3.10;;;15.80;88.30;;;;;;4992083;28;20022;-73
2022/06/01 05:49:26;;;;;;;6.68;3.50;;;15.80;88.40;;;;;;5001176;28;20034;-74
2022/06/01 05:51:52;;;;;;;5.10;2.88;;;15.80;88.40;;;;;;4994304;28;20117;-74
2022/06/01 05:54:19;;;;;;;6.60;3.08;;;15.80;88.50;;;;;;4996655;28;20840;-74
2022/06/01 05:56:44;;;;;;;5.50;3.03;;;15.80;88.50;;;;;;5001992;28;20129;-74
2022/06/01 05:59:11;;;;;;;5.22;3.08;;;15.80;88.50;;;;;;4997395;28;20026;-76
2022/06/01 06:01:37;;;;;;;5.65;3.20;;;15.80;88.50;;;;;;5005081;28;20045;-74
2022/06/01 06:04:03;;;;;;;4.50;2.95;;;15.80;88.50;;;;;;5005384;28;20832;-74
2022/06/01 06:06:28;;;;;;;4.22;2.75;;;15.80;88.50;;;;;;4997875;28;20029;-75
2022/06/01 06:09:00;;;;;;;4.85;2.92;;;15.80;88.50;;;;;;5001044;28;20044;-75
2022/06/01 06:11:28;;;;;;;4.15;2.50;;;15.80;88.40;;;;;;4985597;28;20026;-75
2022/06/01 06:13:55;;;;;;;4.72;2.80;;;15.90;88.20;;;;;;4985579;28;20030;-75
2022/06/01 06:16:21;;;;;;;4.93;3.20;;;15.90;88.10;;;;;;4985659;28;20076;-74
2022/06/01 06:18:47;;;;;;;5.20;3.00;;;15.90;88.00;;;;;;4986292;28;20042;-73
2022/06/01 06:21:13;;;;;;;4.95;3.10;;;15.90;87.80;;;;;;4986804;28;20041;-75
2022/06/01 06:23:39;;;;;;;4.97;3.03;;;16.00;87.70;;;;;;4986882;28;20030;-75
2022/06/01 06:26:05;;;;;;;6.25;3.00;;;16.00;87.60;;;;;;4986907;28;20073;-74
2022/06/01 06:28:31;;;;;;;4.60;2.78;;;16.00;87.50;;;;;;4986724;28;20077;-75
2022/06/01 06:30:57;;;;;;;5.28;3.22;;;16.00;87.30;;;;;;4985858;28;20666;-74
2022/06/01 06:33:23;;;;;;;5.20;3.22;;;16.00;87.20;;;;;;4986785;28;20109;-75
2022/06/01 06:36:04;;;;;;;5.60;3.53;;;16.00;87.20;;;;;;4985623;28;20566;-75
2022/06/01 06:38:31;;;;;;;5.97;3.17;;;16.10;87.30;;;;;;4986114;28;20478;-76
2022/06/01 06:40:58;;;;;;;5.82;3.20;;;16.00;87.40;;;;;;4995354;28;20055;-73
2022/06/01 06:43:26;;;;;;;5.00;3.25;;;16.00;87.50;;;;;;4989500;28;20018;-75
2022/06/01 06:45:56;;;;;;;4.88;3.00;;;16.00;87.60;;;;;;4989178;28;20068;-75
2022/06/01 06:48:21;;;;;;;4.78;3.05;;;16.00;87.70;;;;;;4990351;28;20034;-75
2022/06/01 06:50:47;;;;;;;5.15;3.10;;;16.00;87.70;;;;;;4990735;28;20084;-75
2022/06/01 06:53:12;;;;;;;5.70;3.40;;;15.90;87.70;;;;;;4989175;28;20113;-75
2022/06/01 06:55:39;;;;;;;5.82;3.42;;;15.90;87.80;;;;;;5010128;28;20026;-74
2022/06/01 06:58:08;;;;;;;4.82;3.15;;;15.90;87.80;;;;;;4993330;28;20119;-74
2022/06/01 07:00:34;;;;;;;5.28;3.40;;;16.00;87.80;;;;;;5008417;28;20029;-75
2022/06/01 07:02:59;;;;;;;5.00;3.05;;;16.00;87.70;;;;;;5008623;28;20717;-75
2022/06/01 07:08:09;;;;;;;5.63;3.53;;;16.00;87.60;;;;;;4990145;28;20041;-74
2022/06/01 07:10:34;;;;;;;5.38;3.20;;;16.00;87.70;;;;;;4991411;28;20033;-74
2022/06/01 07:13:00;;;;;;;5.63;3.60;;;16.00;87.60;;;;;;4999912;28;20058;-76
2022/06/01 07:15:25;;;;;;;5.63;3.50;;;16.00;87.60;;;;;;4989807;28;20034;-74
2022/06/01 07:17:51;;;;;;;6.10;3.60;;;16.00;87.80;;;;;;4995484;28;20034;-75
2022/06/01 07:20:17;;;;;;;5.47;3.20;;;16.00;87.80;;;;;;5009305;28;20121;-75
2022/06/01 07:22:43;;;;;;;6.10;3.55;;;16.00;87.80;;;;;;5009156;28;20030;-75
2022/06/01 07:25:09;;;;;;;5.15;3.30;;;16.00;87.90;;;;;;5009365;28;20161;-74
2022/06/01 07:27:36;;;;;;;6.68;3.75;;;16.00;87.60;;;;;;5007838;28;20030;-75
2022/06/01 07:30:05;;;;;;;5.82;3.75;;;16.10;87.50;;;;;;5009225;28;20029;-75
2022/06/01 07:32:31;;;;;;;5.70;3.58;;;16.10;87.40;;;;;;5007964;28;20065;-75
2022/06/01 07:34:56;;;;;;;5.28;3.30;;;16.20;87.10;;;;;;5008757;28;20108;-75
2022/06/01 07:43:05;;;;;;;5.63;3.50;;;16.20;86.70;;;;;;4997315;28;20036;-75
2022/06/01 07:45:37;;;;;;;5.65;3.70;;;16.20;86.90;;;;;;5002890;28;20403;-74
2022/06/01 07:48:04;;;;;;;5.78;3.85;;;16.20;87.00;;;;;;4999514;28;20404;-74
2022/06/01 07:50:30;;;;;;;6.18;3.60;;;16.10;87.10;;;;;;4995153;28;20031;-72
2022/06/01 07:52:56;;;;;;;5.72;3.53;;;16.10;87.20;;;;;;4997124;28;20041;-75
2022/06/01 07:55:22;;;;;;;5.80;3.40;;;16.10;87.20;;;;;;5000934;28;20056;-74
2022/06/01 07:57:47;;;;;;;6.40;3.75;;;16.10;87.30;;;;;;5007795;28;20040;-75
2022/06/01 08:00:13;;;;;;;5.53;3.63;;;16.10;87.40;;;;;;5008184;28;20134;-76
2022/06/01 08:02:39;;;;;;;5.50;3.58;;;16.10;87.40;;;;;;5008791;28;20169;-75
2022/06/01 08:05:09;;;;;;;5.50;3.70;;;16.10;87.40;;;;;;5008633;28;20493;-75
2022/06/01 08:07:35;;;;;;;5.22;3.55;;;16.10;87.50;;;;;;5007394;28;20030;-75
2022/06/01 08:10:02;;;;;;;6.30;3.90;;;16.10;87.40;;;;;;5002705;28;20023;-74
2022/06/01 08:15:12;;;;;;;5.53;3.67;;;16.10;87.40;;;;;;4989066;28;20092;-75
2022/06/01 08:17:37;;;;;;;5.65;3.63;;;16.10;87.40;;;;;;5003289;28;20034;-74
2022/06/01 08:20:03;;;;;;;5.70;3.78;;;16.10;87.30;;;;;;4994731;28;20058;-75
2022/06/01 08:22:29;;;;;;;5.70;3.53;;;16.10;87.20;;;;;;4988686;28;20487;-75
2022/06/01 08:24:54;;;;;;;5.70;3.70;;;16.10;87.10;;;;;;4989007;28;20041;-76
2022/06/01 08:27:20;;;;;;;5.43;3.45;;;16.10;87.00;;;;;;4997573;28;20026;-74
2022/06/01 08:29:46;;;;;;;5.65;3.58;;;16.20;87.00;;;;;;4988549;28;20360;-76
2022/06/01 08:32:12;;;;;;;6.45;4.10;;;16.20;87.00;;;;;;5010131;28;20120;-74
2022/06/01 08:34:38;;;;;;;5.78;3.90;;;16.20;86.90;;;;;;5008597;28;20116;-74
2022/06/01 08:37:04;;;;;;;5.95;3.88;;;16.20;86.80;;;;;;5006544;28;20029;-74
2022/06/01 08:39:30;;;;;;;6.07;3.97;;;16.20;86.80;;;;;;5006704;28;20034;-75
2022/06/01 08:41:58;;;;;;;6.00;3.97;;;16.30;86.80;;;;;;5023462;28;20033;-74
2022/06/01 08:44:36;;;;;;;5.85;3.83;;;16.30;86.80;;;;;;5006774;28;20109;-75
2022/06/01 08:47:10;;;;;;;6.10;3.90;;;16.30;86.70;;;;;;5006439;28;20021;-75
2022/06/01 08:49:37;;;;;;;5.80;3.70;;;16.30;86.70;;;;;;5008131;28;20090;-75
2022/06/01 08:52:04;;;;;;;5.78;4.03;;;16.20;86.70;;;;;;5006823;28;20061;-77
2022/06/01 08:54:30;;;;;;;6.07;3.97;;;16.20;86.70;;;;;;5007965;28;20026;-75
2022/06/01 08:57:09;;;;;;;5.95;3.90;;;16.20;86.80;;;;;;5007506;28;20120;-75
2022/06/01 08:59:40;;;;;;;6.55;4.35;;;16.20;86.90;;;;;;5022804;28;20030;-74
2022/06/01 09:02:34;;;;;;;6.20;4.13;;;16.20;87.10;;;;;;5006774;28;20109;-74
2022/06/01 09:05:03;;;;;;;6.45;4.35;;;16.10;87.20;;;;;;5006629;28;20126;-75
2022/06/01 09:08:09;;;;;;;5.72;3.88;;;16.10;87.40;;;;;;5005925;28;20060;-76
2022/06/01 09:11:03;;;;;;;6.93;4.15;;;16.10;88.00;;;;;;5007646;28;20025;-76
2022/06/01 09:14:10;;;;;;;5.68;3.80;;;16.10;87.60;;;;;;4991743;28;20069;-74
2022/06/01 09:16:40;;;;;;;6.97;4.60;;;16.10;87.60;;;;;;5012585;28;20044;-75
2022/06/01 09:19:11;;;;;;;6.30;4.30;;;16.10;87.60;;;;;;4995596;28;20108;-74
2022/06/01 09:24:43;;;;;;;6.03;3.90;;;16.10;87.50;;;;;;4927096;29;20248;-79
2022/06/01 09:27:12;;;;;;;5.88;3.90;;;16.10;87.40;;;;;;4919130;29;20025;-75
2022/06/01 09:29:46;;;;;;;6.20;4.15;;;16.10;87.50;;;;;;4981266;28;20033;-74
2022/06/01 09:32:28;;;;;;;6.63;4.40;;;16.10;87.50;;;;;;5003446;28;20029;-75
2022/06/01 09:34:58;;;;;;;6.47;4.28;;;16.10;87.60;;;;;;5007163;28;20053;-76
2022/06/01 09:37:27;;;;;;;7.38;4.30;;;16.10;87.60;;;;;;5007239;28;20495;-75
2022/06/01 09:40:04;;;;;;;6.47;3.92;;;16.10;87.60;;;;;;5006782;28;20445;-74
2022/06/01 09:42:39;;;;;;;6.47;4.10;;;16.10;87.60;;;;;;5006067;28;20030;-74
2022/06/01 09:45:22;;;;;;;5.72;4.00;;;16.10;88.20;;;;;;5006172;28;20065;-76
2022/06/01 09:47:50;;;;;;;6.40;4.18;;;16.10;87.60;;;;;;4999616;28;20151;-75
2022/06/01 09:50:33;;;;;;;6.07;3.92;;;16.10;87.60;;;;;;4998442;28;20038;-74
2022/06/01 09:53:11;;;;;;;5.32;3.72;;;16.10;87.60;;;;;;4986000;28;20034;-73
2022/06/01 09:56:06;;;;;;;5.97;3.80;;;16.10;87.50;;;;;;4985759;28;20507;-74
2022/06/01 10:07:00;;;;;;;5.93;4.03;;;16.20;87.30;;;;;;4987216;28;20040;-75
2022/06/01 10:09:29;;;;;;;6.63;4.30;;;16.20;87.20;;;;;;4987621;28;20747;-75
2022/06/01 10:11:56;;;;;;;5.32;3.63;;;16.20;87.10;;;;;;4985877;28;20116;-75
2022/06/01 10:14:31;;;;;;;5.90;3.78;;;16.20;87.00;;;;;;4985454;28;20061;-75
2022/06/01 10:17:28;;;;;;;5.65;3.88;;;16.20;86.90;;;;;;4986892;28;20030;-75
2022/06/01 10:19:57;;;;;;;6.35;4.10;;;16.30;86.70;;;;;;4985631;28;20570;-75
2022/06/01 10:22:32;;;;;;;5.75;3.90;;;16.30;86.60;;;;;;4987538;28;20483;-75
2022/06/01 10:25:01;;;;;;;6.00;4.00;;;16.30;86.40;;;;;;4985995;28;20034;-75
2022/06/01 10:27:36;;;;;;;6.22;4.10;;;16.40;86.30;;;;;;4986837;28;20019;-75
2022/06/01 10:30:09;;;;;;;6.22;3.78;;;16.40;86.20;;;;;;4986749;28;20034;-75
2022/06/01 10:32:48;;;;;;;6.07;3.97;;;16.40;86.00;;;;;;4986937;28;20525;-75
2022/06/01 10:35:31;;;;;;;5.18;3.40;;;16.40;86.00;;;;;;4987117;28;20543;-74
2022/06/01 10:38:00;;;;;;;6.68;3.90;;;16.40;86.00;;;;;;4985311;28;20105;-75
2022/06/01 10:40:51;;;;;;;5.85;3.85;;;16.40;86.10;;;;;;4986859;28;20034;-75
2022/06/01 10:43:31;;;;;;;5.75;3.88;;;16.40;86.10;;;;;;4998668;28;20029;-75
2022/06/01 10:46:25;;;;;;;5.77;3.83;;;16.30;86.30;;;;;;5006788;28;20022;-75
2022/06/01 10:49:22;;;;;;;6.22;4.13;;;16.30;86.50;;;;;;5006229;28;20030;-75
2022/06/01 10:51:58;;;;;;;5.85;3.78;;;16.30;86.70;;;;;;5000504;28;20034;-74
2022/06/01 10:54:34;;;;;;;5.85;3.88;;;16.30;86.80;;;;;;5006313;28;20026;-75
2022/06/01 10:57:00;;;;;;;6.03;4.05;;;16.30;86.90;;;;;;5006288;28;20494;-74
2022/06/01 10:59:25;;;;;;;6.65;3.90;;;16.30;87.00;;;;;;5004901;28;20061;-74
2022/06/01 11:02:17;;;;;;;6.05;3.92;;;16.30;86.90;;;;;;5006492;28;20030;-74
2022/06/01 11:05:16;;;;;;;6.35;4.40;;;16.30;86.90;;;;;;5000809;28;20545;-75
2022/06/01 11:08:02;;;;;;;5.70;3.87;;;16.30;86.80;;;;;;5006137;28;20030;-75
2022/06/01 11:10:39;;;;;;;5.65;3.65;;;16.30;86.60;;;;;;5005129;28;20295;-74
2022/06/01 11:13:07;;;;;;;5.53;3.90;;;16.40;86.40;;;;;;5005135;28;20022;-75
2022/06/01 11:16:06;;;;;;;5.25;3.60;;;16.40;86.30;;;;;;5006437;28;20380;-75
2022/06/01 11:19:10;;;;;;;5.95;3.90;;;16.40;86.20;;;;;;5005930;28;20487;-75
2022/06/01 11:22:06;;;;;;;5.60;3.65;;;16.40;86.20;;;;;;5005020;28;20406;-76
2022/06/01 11:24:50;;;;;;;5.75;3.85;;;16.40;86.30;;;;;;5004844;28;20453;-75
2022/06/01 11:27:21;;;;;;;6.20;3.90;;;16.30;86.50;;;;;;5007969;28;20037;-75
2022/06/01 11:29:50;;;;;;;5.85;3.83;;;16.30;86.60;;;;;;5008089;28;20121;-75
2022/06/01 11:32:21;;;;;;;5.78;4.03;;;16.30;86.80;;;;;;5009702;28;20034;-75
2022/06/01 11:35:24;;;;;;;6.10;3.90;;;16.30;86.90;;;;;;5009500;28;20097;-75
2022/06/01 11:38:10;;;;;;;6.00;4.00;;;16.30;86.90;;;;;;5007846;28;20022;-75
2022/06/01 11:40:45;;;;;;;5.80;3.88;;;16.30;86.90;;;;;;5009239;28;20113;-75
2022/06/01 11:43:29;;;;;;;6.18;4.03;;;16.30;86.80;;;;;;5009653;28;20514;-75
2022/06/01 11:46:04;;;;;;;6.47;4.20;;;16.30;86.80;;;;;;5009747;28;20018;-76
2022/06/01 11:48:36;;;;;;;6.18;4.18;;;16.30;86.70;;;;;;5007555;28;20022;-76
2022/06/01 11:51:06;;;;;;;6.18;4.05;;;16.30;86.70;;;;;;5008029;28;20034;-76
2022/06/01 11:53:55;;;;;;;6.05;4.45;;;16.30;86.70;;;;;;5009219;28;20021;-75
2022/06/01 11:56:42;;;;;;;5.85;4.07;;;16.30;86.60;;;;;;5009233;28;20049;-75
2022/06/01 11:59:33;;;;;;;6.25;4.13;;;16.30;86.60;;;;;;5007942;28;20026;-75
2022/06/01 12:02:41;;;;;;;6.07;4.03;;;16.40;86.60;;;;;;5008883;28;20064;-75
2022/06/01 12:05:09;;;;;;;6.13;4.13;;;16.40;86.50;;;;;;5007908;28;20621;-74
2022/06/01 12:07:38;;;;;;;5.82;4.00;;;16.40;86.40;;;;;;5008506;28;20029;-75
2022/06/01 12:10:28;;;;;;;6.20;4.20;;;16.40;86.50;;;;;;5007429;28;20038;-76
2022/06/01 12:13:15;;;;;;;6.35;4.10;;;16.40;86.60;;;;;;5007317;28;20030;-75
2022/06/01 12:16:02;;;;;;;6.30;4.07;;;16.30;86.60;;;;;;5008912;28;20609;-75
2022/06/01 12:18:29;;;;;;;5.80;3.67;;;16.40;86.60;;;;;;5008472;28;20041;-74
2022/06/01 12:21:27;;;;;;;5.47;3.78;;;16.40;86.50;;;;;;5007973;28;20099;-75
2022/06/01 12:29:37;;;;;;;6.60;4.32;;;16.40;86.50;;;;;;5008768;28;20076;-77
2022/06/01 12:32:03;;;;;;;6.45;4.22;;;16.40;86.60;;;;;;5007096;28;20026;-75
2022/06/01 12:34:40;;;;;;;5.93;3.92;;;16.30;86.60;;;;;;5008494;28;20484;-75
2022/06/01 12:37:06;;;;;;;5.72;3.85;;;16.30;86.80;;;;;;5006305;28;20498;-74
2022/06/01 12:39:38;;;;;;;5.65;3.90;;;16.30;86.90;;;;;;5008170;28;20112;-75
2022/06/01 12:42:21;;;;;;;5.45;3.67;;;16.30;87.10;;;;;;5006131;28;20030;-76
2022/06/01 12:44:51;;;;;;;5.70;3.90;;;16.30;87.10;;;;;;4986471;28;20034;-75
2022/06/01 12:47:28;;;;;;;5.95;3.95;;;16.20;87.20;;;;;;4989811;28;20050;-75
2022/06/01 12:49:54;;;;;;;6.05;4.10;;;16.20;87.30;;;;;;5006121;28;20639;-75
2022/06/01 12:52:22;;;;;;;6.40;4.20;;;16.20;87.40;;;;;;5007739;28;20034;-75
2022/06/01 12:54:51;;;;;;;6.28;4.13;;;16.20;87.50;;;;;;5006568;28;20049;-75
2022/06/01 12:57:40;;;;;;;6.15;4.28;;;16.20;87.50;;;;;;5006438;28;20097;-75
2022/06/01 13:00:20;;;;;;;5.93;3.90;;;16.20;87.60;;;;;;5008018;28;20030;-75
2022/06/01 13:02:47;;;;;;;6.00;3.95;;;16.20;87.50;;;;;;5006613;28;20406;-75
2022/06/01 13:05:19;;;;;;;5.97;4.07;;;16.20;87.70;;;;;;5007610;28;20033;-74
2022/06/01 13:07:49;;;;;;;6.18;4.10;;;16.10;87.60;;;;;;5006382;28;20084;-75
2022/06/01 13:10:27;;;;;;;5.97;4.18;;;16.20;87.70;;;;;;5007703;28;20033;-75
2022/06/01 13:13:11;;;;;;;6.22;4.25;;;16.10;87.60;;;;;;5007701;28;20034;-74
2022/06/01 13:15:39;;;;;;;7.28;4.45;;;16.20;88.10;;;;;;5006349;28;20442;-75
2022/06/01 13:18:11;;;;;;;6.50;3.80;;;16.20;87.60;;;;;;5006950;28;20096;-75
2022/06/01 13:20:39;;;;;;;5.88;3.83;;;16.20;87.50;;;;;;5007123;28;20100;-74
2022/06/01 13:23:16;;;;;;;6.68;3.97;;;16.20;87.50;;;;;;5007448;28;20450;-75
2022/06/01 13:25:42;;;;;;;6.47;4.30;;;16.20;87.40;;;;;;5007594;28;20036;-75
2022/06/01 13:28:10;;;;;;;6.72;3.97;;;16.20;87.30;;;;;;5005693;28;20026;-75
2022/06/01 13:30:36;;;;;;;6.00;3.95;;;16.30;87.30;;;;;;5007233;28;20250;-76
2022/06/01 13:33:15;;;;;;;6.20;4.10;;;16.30;87.10;;;;;;5007220;28;20037;-76
2022/06/01 13:35:52;;;;;;;5.68;3.58;;;16.30;86.90;;;;;;5005770;28;20044;-75
2022/06/01 13:38:21;;;;;;;6.07;4.18;;;16.30;86.80;;;;;;5006735;28;20022;-75
2022/06/01 13:41:00;;;;;;;5.90;3.67;;;16.30;86.80;;;;;;5007118;28;20038;-75
2022/06/01 13:43:26;;;;;;;5.60;3.78;;;16.30;87.40;;;;;;5007276;28;20081;-75
2022/06/01 13:45:57;;;;;;;6.32;4.05;;;16.30;87.00;;;;;;5006741;28;20113;-74